KAFW/AFW METAR and TAF weather

Enter ICAO airport designator
Station Type Date Time Source
KAFW METAR 2019/11/18 10:53 UTC NOAA

KAFW 181053Z 23004KT 10SM CLR 05/01 A2998 RMK AO2 SLP153 T00500011


Station Type Date Time Source
KAFW Decoded METAR 2019/11/18 10:53 UTC NOAA

FORT WORTH ALLIANCE AIRPORT, TX, United States (KAFW) 32-59N 097-19W 233M
Nov 18, 2019 - 05:53 AM EST / 2019.11.18 1053 UTC
Wind: from the SW (230 degrees) at 5 MPH (4 KT):0
Visibility: 10 mile(s):0
Sky conditions: clear
Temperature: 41.0 F (5.0 C)
Dew Point: 34.0 F (1.1 C)
Relative Humidity: 75%
Pressure (altimeter): 29.98 in. Hg (1015 hPa)
ob: KAFW 181053Z 23004KT 10SM CLR 05/01 A2998 RMK AO2 SLP153 T00500011
cycle: 11

Station Type Date Time Source
KAFW TAF 2019/11/18 12:24 UTC NOAA

TAF KAFW 181122Z 1812/1912 23006KT P6SM FEW250

Example: see airport list